Sanford, NC

11:09 PM EDT on October 23, 2017 (GMT -0400)
Raleigh Executive Jetport

Weather History for KTTA - February, 2013

Change the Weather History Date:

Monday, February 18, 2013

  Actual Average (KHRJ) Record (KHRJ)
Temperature  
Mean Temperature 34 °F -  
Max Temperature 52 °F 54 °F 77 °F (2011)
Min Temperature 15 °F 32 °F 12 °F (1980)
Degree Days  
Heating Degree Days 32    
Moisture  
Dew Point 18 °F    
Average Humidity 60    
Maximum Humidity 93    
Minimum Humidity 25    
Precipitation  
Precipitation 0.00 in - - ()
Sea Level Pressure  
Sea Level Pressure 30.33 in    
Wind  
Wind Speed 2 mph (South)    
Max Wind Speed 8 mph    
Max Gust Speed -    
Visibility 10 miles    
Events      
Averages and records for this station are not official NWS values.
T = Trace of Precipitation, MM = Missing Value Source: NWS Daily Summary

Daily Weather History Graph

Daily Weather History Graph

Search for Another Location

Airport or City:

Trip Planner

Search our weather history database for the weather conditions in past years. The results will help you decide how hot, cold, wet, or windy it might be!

Date:

Astronomy

Feb. 18, 2013 Rise Set
Actual Time 6:59 AM EST 6:01 PM EST
Civil Twilight 6:33 AM EST 6:27 PM EST
Nautical Twilight 6:03 AM EST 6:57 PM EST
Astronomical Twilight 5:34 AM EST 7:26 PM EST
Moon 11:52 AM EST (2/18) 1:32 AM EST (2/18)
Length of Visible Light 11h 53m
Length of Day
11h 02m
First Quarter, 58% of the Moon is Illuminated
Feb 18
First Quarter
Feb 25
Full
Mar 4
Last Quarter
Mar 11
New
Mar 19
First Quarter

Hourly Weather History & Observations

Time (EST) Temp. Windchill Dew Point Humidity Pressure Visibility Wind Dir Wind Speed Gust Speed Precip Events Conditions
12:15 AM 21.2 °F - 18.0 °F 87% 30.30 in 10.0 mi Calm Calm - N/A   Clear
12:35 AM 20.3 °F - 17.4 °F 89% 30.30 in 10.0 mi Calm Calm - N/A   Clear
12:55 AM 20.3 °F - 17.6 °F 89% 30.30 in 10.0 mi Calm Calm - N/A   Clear
1:15 AM 19.8 °F - 17.2 °F 90% 30.31 in 10.0 mi Calm Calm - N/A   Clear
1:35 AM 19.6 °F - 17.2 °F 91% 30.31 in 10.0 mi Calm Calm - N/A   Clear
1:55 AM 18.7 °F - 16.7 °F 92% 30.31 in 10.0 mi Calm Calm - N/A   Clear
2:15 AM 18.5 °F - 16.7 °F 93% 30.32 in 10.0 mi Calm Calm - N/A   Clear
2:35 AM 18.1 °F - 15.8 °F 91% 30.32 in 10.0 mi Calm Calm - N/A   Clear
2:55 AM 17.4 °F - 15.3 °F 91% 30.32 in 10.0 mi Calm Calm - N/A   Clear
3:15 AM 18.0 °F - 15.8 °F 91% 30.32 in 10.0 mi Calm Calm - N/A   Clear
3:35 AM 18.3 °F - 16.0 °F 91% 30.32 in 10.0 mi Calm Calm - N/A   Clear
3:55 AM 17.2 °F - 14.9 °F 91% 30.33 in 10.0 mi Calm Calm - N/A   Clear
4:15 AM 16.7 °F - 14.7 °F 92% 30.33 in 10.0 mi Calm Calm - N/A   Clear
4:35 AM 17.1 °F - 14.9 °F 91% 30.34 in 10.0 mi Calm Calm - N/A   Clear
4:55 AM 16.9 °F - 14.9 °F 92% 30.34 in 10.0 mi Calm Calm - N/A   Clear
5:15 AM 16.9 °F - 14.7 °F 91% 30.35 in 10.0 mi Calm Calm - N/A   Clear
5:55 AM 16.2 °F - 14.0 °F 91% 30.37 in 10.0 mi Calm Calm - N/A   Clear
6:15 AM 16.3 °F - 14.0 °F 90% 30.37 in 10.0 mi Calm Calm - N/A   Clear
6:35 AM 16.3 °F - 14.0 °F 90% 30.38 in 10.0 mi Calm Calm - N/A   Clear
6:55 AM 15.8 °F - 13.8 °F 92% 30.39 in 10.0 mi Calm Calm - N/A   Clear
7:15 AM 15.6 °F - 13.5 °F 91% 30.39 in 10.0 mi Calm Calm - N/A   Clear
7:35 AM 16.0 °F - 13.8 °F 91% 30.39 in 10.0 mi Calm Calm - N/A   Clear
7:55 AM 18.5 °F - 16.0 °F 90% 30.40 in 10.0 mi Calm Calm - N/A   Clear
8:15 AM 21.4 °F - 18.9 °F 90% 30.40 in 10.0 mi Calm Calm - N/A   Clear
8:35 AM 23.7 °F - 20.3 °F 87% 30.41 in 10.0 mi Calm Calm - N/A   Clear
9:15 AM 29.7 °F - 21.2 °F 71% 30.41 in 10.0 mi Calm Calm - N/A   Clear
9:35 AM 32.4 °F - 21.0 °F 63% 30.42 in 10.0 mi Calm Calm - N/A   Clear
10:15 AM 37.4 °F - 18.0 °F 45% 30.41 in 10.0 mi Calm Calm - N/A   Clear
10:35 AM 40.3 °F 38.2 °F 17.6 °F 40% 30.41 in 10.0 mi SSW 3.5 mph - N/A   Clear
10:55 AM 41.7 °F - 13.3 °F 32% 30.41 in 10.0 mi Calm Calm - N/A   Clear
11:15 AM 43.2 °F 41.5 °F 11.8 °F 28% 30.41 in 10.0 mi South 3.5 mph - N/A   Clear
11:35 AM 44.4 °F - 12.2 °F 27% 30.40 in 10.0 mi Calm Calm - N/A   Clear
12:15 PM 46.9 °F - 14.4 °F 27% 30.39 in 10.0 mi WSW 5.8 mph - N/A   Clear
12:35 PM 47.8 °F - 14.5 °F 26% 30.38 in 10.0 mi South 3.5 mph - N/A   Clear
12:55 PM 47.8 °F - 15.3 °F 27% 30.36 in 10.0 mi Calm Calm - N/A   Clear
1:15 PM 49.3 °F - 16.0 °F 27% 30.35 in 10.0 mi SSE 6.9 mph - N/A   Clear
1:35 PM 50.4 °F - 15.4 °F 25% 30.33 in 10.0 mi SSW 5.8 mph - N/A   Clear
1:55 PM 50.5 °F - 16.5 °F 26% 30.32 in 10.0 mi South 8.1 mph - N/A   Clear
2:15 PM 51.1 °F - 16.5 °F 25% 30.32 in 10.0 mi Calm Calm - N/A   Clear
2:35 PM 51.1 °F - 15.8 °F 25% 30.32 in 10.0 mi SSW 8.1 mph - N/A   Clear
2:55 PM 51.8 °F - 18.1 °F 27% 30.31 in 10.0 mi South 5.8 mph - N/A   Clear
3:15 PM 51.8 °F - 18.5 °F 27% 30.31 in 10.0 mi South 6.9 mph - N/A   Clear
3:35 PM 52.5 °F - 19.6 °F 27% 30.31 in 10.0 mi South 8.1 mph - N/A   Clear
3:55 PM 51.8 °F - 19.8 °F 28% 30.30 in 10.0 mi South 6.9 mph - N/A   Clear
4:15 PM 51.8 °F - 20.5 °F 29% 30.30 in 10.0 mi South 8.1 mph - N/A   Clear
4:35 PM 51.8 °F - 20.1 °F 29% 30.30 in 10.0 mi South 8.1 mph - N/A   Clear
4:55 PM 50.9 °F - 20.7 °F 30% 30.30 in 10.0 mi South 8.1 mph - N/A   Clear
5:15 PM 50.4 °F - 20.5 °F 31% 30.30 in 10.0 mi South 5.8 mph - N/A   Clear
5:35 PM 49.6 °F - 19.9 °F 31% 30.29 in 10.0 mi South 8.1 mph - N/A   Clear
5:55 PM 48.0 °F - 20.5 °F 34% 30.30 in 10.0 mi South 4.6 mph - N/A   Clear
6:15 PM 45.9 °F 43.6 °F 20.3 °F 36% 30.30 in 10.0 mi SSE 4.6 mph - N/A   Clear
6:35 PM 44.4 °F - 20.3 °F 38% 30.31 in 10.0 mi Calm Calm - N/A   Clear
6:55 PM 40.3 °F - 25.9 °F 56% 30.31 in 10.0 mi Calm Calm - N/A   Clear
7:15 PM 39.7 °F - 24.4 °F 54% 30.31 in 10.0 mi Calm Calm - N/A   Clear
7:35 PM 36.0 °F - 26.4 °F 68% 30.30 in 10.0 mi Calm Calm - N/A   Clear
7:55 PM 37.2 °F - 25.2 °F 62% 30.30 in 10.0 mi Calm Calm - N/A   Clear
8:35 PM 34.0 °F - 25.9 °F 72% 30.30 in 10.0 mi Calm Calm - N/A   Clear
8:55 PM 35.8 °F 31.9 °F 23.5 °F 61% 30.30 in 10.0 mi SSE 4.6 mph - N/A   Clear
9:15 PM 40.3 °F 35.5 °F 24.6 °F 54% 30.30 in 10.0 mi South 6.9 mph - N/A   Clear
9:35 PM 40.6 °F 35.4 °F 24.6 °F 53% 30.29 in 10.0 mi South 8.1 mph - N/A   Clear
10:15 PM 41.0 °F 35.8 °F 24.8 °F 53% 30.28 in 10.0 mi South 8.1 mph - N/A   Clear
10:55 PM 39.7 °F 34.9 °F 25.5 °F 57% 30.28 in 10.0 mi South 6.9 mph - N/A   Clear
11:15 PM 38.7 °F 34.3 °F 25.7 °F 60% 30.28 in 10.0 mi South 5.8 mph - N/A   Clear
11:35 PM 37.9 °F 34.4 °F 25.7 °F 61% 30.28 in 10.0 mi South 4.6 mph - N/A   Clear